createdAt,value
2024-05-09T00:00:42.021Z,86.6028
2024-05-09T00:01:41.882Z,86.6960
2024-05-09T00:02:43.998Z,86.7234
2024-05-09T00:03:46.206Z,86.7918
2024-05-09T00:04:48.360Z,86.7449
2024-05-09T00:05:50.550Z,86.9294
2024-05-09T00:06:52.655Z,86.9729
2024-05-09T00:07:54.757Z,87.0256
2024-05-09T00:08:56.847Z,86.9175
2024-05-09T00:09:58.931Z,86.8863
2024-05-09T00:11:01.073Z,86.9108
2024-05-09T00:12:03.221Z,86.8092
2024-05-09T00:13:05.547Z,86.8878
2024-05-09T00:14:07.695Z,86.7564
2024-05-09T00:15:09.782Z,86.8175
2024-05-09T00:16:11.869Z,86.8652
2024-05-09T00:17:14.055Z,86.9222
2024-05-09T00:18:16.398Z,86.8672
2024-05-09T00:19:18.698Z,86.9240
2024-05-09T00:20:28.052Z,86.9750
2024-05-09T00:21:21.391Z,87.0194
2024-05-09T00:22:23.447Z,86.9720
2024-05-09T00:23:25.608Z,86.9366
2024-05-09T00:24:27.718Z,86.9636
2024-05-09T00:25:29.789Z,86.9831
2024-05-09T00:26:32.014Z,87.0373
2024-05-09T00:27:34.072Z,87.0522
2024-05-09T00:28:36.199Z,87.1252
2024-05-09T00:29:38.291Z,87.1795
2024-05-09T00:30:40.335Z,87.1941
2024-05-09T00:31:42.481Z,87.2374
2024-05-09T00:32:44.682Z,87.2919
2024-05-09T00:33:46.904Z,87.2772
2024-05-09T00:34:49.057Z,87.2369
2024-05-09T00:35:51.096Z,87.2463
2024-05-09T00:36:53.182Z,87.2301
2024-05-09T00:37:55.352Z,87.2751
2024-05-09T00:38:57.402Z,87.2597
2024-05-09T00:39:59.461Z,87.3251
2024-05-09T00:41:01.560Z,87.4275
2024-05-09T00:42:03.629Z,87.5091
2024-05-09T00:43:05.724Z,87.5173
2024-05-09T00:44:07.842Z,87.5615
2024-05-09T00:45:09.884Z,87.5096
2024-05-09T00:46:11.971Z,87.5682
2024-05-09T00:47:14.145Z,87.5355
2024-05-09T00:48:18.863Z,87.5220
2024-05-09T00:49:18.114Z,87.4553
2024-05-09T00:50:29.389Z,87.3075
2024-05-09T00:51:20.974Z,87.3627
2024-05-09T00:52:23.065Z,87.2822
2024-05-09T00:53:25.185Z,87.2319
2024-05-09T00:54:27.197Z,87.2360
2024-05-09T00:55:29.291Z,87.1667
2024-05-09T00:56:31.530Z,87.1449
2024-05-09T00:57:33.616Z,87.1570
2024-05-09T00:58:35.696Z,87.1466
2024-05-09T00:59:37.811Z,87.1358
2024-05-09T01:00:41.256Z,87.0704
2024-05-09T01:01:41.527Z,87.0111
2024-05-09T01:02:43.737Z,87.0340
2024-05-09T01:03:48.717Z,87.0884
2024-05-09T01:04:47.576Z,86.9799
2024-05-09T01:05:49.858Z,86.9423
2024-05-09T01:06:51.961Z,86.9623
2024-05-09T01:07:54.150Z,86.8484
2024-05-09T01:08:56.206Z,86.9181
2024-05-09T01:09:58.289Z,86.8335
2024-05-09T01:11:00.472Z,86.9277
2024-05-09T01:12:02.705Z,86.8645
2024-05-09T01:13:04.906Z,86.8167
2024-05-09T01:14:07.142Z,86.7698
2024-05-09T01:15:09.223Z,86.7905
2024-05-09T01:16:11.291Z,86.8547
2024-05-09T01:17:13.459Z,86.8504
2024-05-09T01:18:15.885Z,86.8155
2024-05-09T01:19:18.149Z,86.8202
2024-05-09T01:20:27.826Z,86.7288
2024-05-09T01:21:20.922Z,86.7767
2024-05-09T01:22:23.029Z,86.7116
2024-05-09T01:23:25.235Z,86.6521
2024-05-09T01:24:27.265Z,86.6028
2024-05-09T01:25:29.340Z,86.7114
2024-05-09T01:26:31.494Z,86.7131
2024-05-09T01:27:33.544Z,86.7643
2024-05-09T01:28:35.678Z,86.7506
2024-05-09T01:29:37.834Z,86.7707
2024-05-09T01:30:39.915Z,86.8631
2024-05-09T01:31:42.030Z,86.9681
2024-05-09T01:32:44.164Z,86.8913
2024-05-09T01:33:46.693Z,87.0034
2024-05-09T01:34:46.506Z,86.9198
2024-05-09T01:35:48.581Z,86.9270
2024-05-09T01:36:50.698Z,86.9015
2024-05-09T01:37:52.774Z,86.9617
2024-05-09T01:38:54.868Z,86.9816
2024-05-09T01:39:56.962Z,87.0383
2024-05-09T01:40:59.067Z,87.0400
2024-05-09T01:42:01.107Z,86.9760
2024-05-09T01:43:03.216Z,87.0337
2024-05-09T01:44:05.312Z,86.9789
2024-05-09T01:45:07.371Z,86.9238
2024-05-09T01:46:09.444Z,86.9009
2024-05-09T01:47:11.735Z,87.0827
2024-05-09T01:48:11.891Z,87.0330
2024-05-09T01:49:14.365Z,87.0650
2024-05-09T01:51:15.853Z,87.1391
2024-05-09T01:52:17.909Z,87.1862
2024-05-09T01:53:20.103Z,87.1212
2024-05-09T01:54:22.162Z,87.0464
2024-05-09T01:55:24.357Z,86.9923
2024-05-09T01:56:26.446Z,86.9618
2024-05-09T01:57:28.635Z,87.0299
2024-05-09T01:58:30.731Z,86.9915
2024-05-09T01:59:32.897Z,87.1138
2024-05-09T02:00:40.022Z,87.0591
2024-05-09T02:01:55.592Z,87.0676
2024-05-09T02:02:36.224Z,87.1837
2024-05-09T02:03:38.531Z,87.1394
2024-05-09T02:04:40.791Z,87.0193
2024-05-09T02:05:42.978Z,87.0247
2024-05-09T02:06:42.916Z,86.9510
2024-05-09T02:07:46.415Z,86.8297
2024-05-09T02:08:49.613Z,86.9819
2024-05-09T02:09:53.058Z,86.9906
2024-05-09T02:10:56.366Z,86.9760
2024-05-09T02:11:59.715Z,87.0234
2024-05-09T02:13:02.950Z,86.9171
2024-05-09T02:14:06.311Z,87.0617
2024-05-09T02:15:09.508Z,87.0914
2024-05-09T02:16:12.728Z,87.0979
2024-05-09T02:17:16.128Z,87.0024
2024-05-09T02:18:17.029Z,86.9627
2024-05-09T02:19:16.899Z,86.9261
2024-05-09T02:20:30.048Z,86.9570
2024-05-09T02:21:22.265Z,87.0382
2024-05-09T02:22:25.465Z,86.9841
2024-05-09T02:23:28.688Z,86.9672
2024-05-09T02:24:31.924Z,87.0114
2024-05-09T02:25:35.128Z,87.0245
2024-05-09T02:26:38.368Z,87.1238
2024-05-09T02:27:41.606Z,87.1060
2024-05-09T02:28:44.827Z,87.1163
2024-05-09T02:29:48.080Z,87.1160
2024-05-09T02:30:51.272Z,87.1109
2024-05-09T02:31:54.574Z,87.1936
2024-05-09T02:32:57.884Z,87.1117
2024-05-09T02:34:01.499Z,87.3310
2024-05-09T02:35:01.572Z,87.3680
2024-05-09T02:36:04.946Z,87.1595
2024-05-09T02:37:08.177Z,87.2480
2024-05-09T02:38:11.491Z,87.1650
2024-05-09T02:39:11.436Z,87.2489
2024-05-09T02:40:18.119Z,87.3086
2024-05-09T02:41:16.794Z,87.3338
2024-05-09T02:42:18.115Z,87.4414
2024-05-09T02:43:21.279Z,87.4993
2024-05-09T02:44:24.591Z,87.4386
2024-05-09T02:45:27.833Z,87.5037
2024-05-09T02:46:27.905Z,87.5859
2024-05-09T02:47:31.183Z,87.5612
2024-05-09T02:48:34.561Z,87.5200
2024-05-09T02:49:37.818Z,87.4156
2024-05-09T02:50:41.297Z,87.5015
2024-05-09T02:51:41.176Z,87.4676
2024-05-09T02:52:44.381Z,87.5366
2024-05-09T02:53:47.646Z,87.6151
2024-05-09T02:54:50.943Z,87.6939
2024-05-09T02:55:54.158Z,87.6955
2024-05-09T02:56:57.342Z,87.6978
2024-05-09T02:58:00.587Z,87.5703
2024-05-09T02:59:03.875Z,87.6622
2024-05-09T03:00:12.101Z,87.7350
2024-05-09T03:01:09.175Z,87.7319
2024-05-09T03:02:12.498Z,87.7835
2024-05-09T03:03:16.080Z,87.7627
2024-05-09T03:04:16.151Z,87.6640
2024-05-09T03:05:19.541Z,87.7518
2024-05-09T03:06:22.725Z,87.7562
2024-05-09T03:07:26.220Z,87.8835
2024-05-09T03:08:26.164Z,87.9851
2024-05-09T03:09:29.337Z,87.9507
2024-05-09T03:10:35.852Z,87.8887
2024-05-09T03:11:34.815Z,87.8875
2024-05-09T03:12:37.859Z,87.7835
2024-05-09T03:13:35.152Z,87.7905
2024-05-09T03:14:38.352Z,87.8730
2024-05-09T03:15:41.618Z,87.8844
2024-05-09T03:16:44.823Z,87.9056
2024-05-09T03:17:48.162Z,87.9196
2024-05-09T03:18:48.041Z,87.9089
2024-05-09T03:19:51.300Z,87.9647
2024-05-09T03:20:54.590Z,87.9018
2024-05-09T03:21:57.825Z,87.8699
2024-05-09T03:23:01.053Z,87.9065
2024-05-09T03:24:04.299Z,87.8991
2024-05-09T03:25:05.563Z,87.8712
2024-05-09T03:26:08.856Z,87.8980
2024-05-09T03:27:12.020Z,87.8692
2024-05-09T03:28:15.312Z,87.9241
2024-05-09T03:29:15.344Z,87.9500
2024-05-09T03:30:29.552Z,87.9076
2024-05-09T03:31:20.731Z,88.0004
2024-05-09T03:32:24.121Z,87.9819
2024-05-09T03:33:27.518Z,88.0230
2024-05-09T03:34:30.948Z,88.1252
2024-05-09T03:35:34.207Z,88.1880
2024-05-09T03:36:37.394Z,88.1742
2024-05-09T03:37:40.599Z,88.1771
2024-05-09T03:38:43.876Z,88.1933
2024-05-09T03:39:47.046Z,88.0583
2024-05-09T03:40:50.890Z,88.1254
2024-05-09T03:41:51.020Z,88.2439
2024-05-09T03:42:54.230Z,88.1980
2024-05-09T03:43:58.354Z,88.1999
2024-05-09T03:44:58.052Z,88.2074
2024-05-09T03:46:01.284Z,88.0947
2024-05-09T03:47:04.537Z,88.0858
2024-05-09T03:48:08.096Z,88.1626
2024-05-09T03:49:08.088Z,88.1639
2024-05-09T03:50:18.316Z,88.0439
2024-05-09T03:51:13.549Z,88.1504
2024-05-09T03:52:16.790Z,88.1087
2024-05-09T03:53:20.144Z,88.2155
2024-05-09T03:54:23.317Z,88.1125
2024-05-09T03:55:26.544Z,88.0562
2024-05-09T03:56:29.776Z,88.2125
2024-05-09T03:57:32.996Z,88.1101
2024-05-09T03:58:36.231Z,88.1491
2024-05-09T03:59:39.588Z,88.1978
2024-05-09T04:00:42.845Z,88.1524
2024-05-09T04:01:46.196Z,88.2929
2024-05-09T04:02:49.513Z,88.3035
2024-05-09T04:03:52.845Z,88.2579
2024-05-09T04:04:56.116Z,88.3006
2024-05-09T04:05:59.375Z,88.1899
2024-05-09T04:07:02.563Z,88.2097
2024-05-09T04:08:05.799Z,88.2206
2024-05-09T04:09:05.850Z,88.1524
2024-05-09T04:10:13.885Z,88.1924
2024-05-09T04:11:11.232Z,87.9743
2024-05-09T04:12:14.635Z,87.8648
2024-05-09T04:13:17.843Z,87.9180
2024-05-09T04:14:21.118Z,87.8050
2024-05-09T04:15:24.355Z,87.7362
2024-05-09T04:16:24.416Z,87.6855
2024-05-09T04:17:27.740Z,87.6829
2024-05-09T04:18:31.091Z,87.6755
2024-05-09T04:19:34.535Z,87.5391
2024-05-09T04:20:40.364Z,87.5018
2024-05-09T04:21:40.951Z,87.4172
2024-05-09T04:22:44.267Z,87.5014
2024-05-09T04:23:47.547Z,87.4940
2024-05-09T04:24:50.786Z,87.5722
2024-05-09T04:25:54.839Z,87.5274
2024-05-09T04:26:54.558Z,87.5850
2024-05-09T04:27:57.830Z,87.6700
2024-05-09T04:29:01.086Z,87.6879
2024-05-09T04:30:06.098Z,87.5886
2024-05-09T04:31:07.459Z,87.6617
2024-05-09T04:32:10.817Z,87.6977
2024-05-09T04:33:14.943Z,87.8133
2024-05-09T04:34:15.216Z,87.7866
2024-05-09T04:35:18.501Z,87.7518
2024-05-09T04:36:21.711Z,87.6956
2024-05-09T04:37:24.976Z,87.7217
2024-05-09T04:38:28.221Z,87.7099
2024-05-09T04:39:31.438Z,87.6252
2024-05-09T04:40:36.698Z,87.5140
2024-05-09T04:41:37.281Z,87.3849
2024-05-09T04:42:40.485Z,87.4410
2024-05-09T04:43:43.712Z,87.4732
2024-05-09T04:44:46.953Z,87.4795
2024-05-09T04:45:50.180Z,87.5624
2024-05-09T04:46:53.512Z,87.3239
2024-05-09T04:47:56.966Z,87.2620
2024-05-09T04:48:56.915Z,87.2513
2024-05-09T04:50:00.203Z,87.1726
2024-05-09T04:51:03.709Z,87.1901
2024-05-09T04:52:03.498Z,87.2919
2024-05-09T04:53:07.613Z,87.3804
2024-05-09T04:54:10.738Z,87.2763
2024-05-09T04:55:09.178Z,87.2972
2024-05-09T04:56:12.495Z,87.4658
2024-05-09T04:57:15.708Z,87.5035
2024-05-09T04:58:18.906Z,87.5474
2024-05-09T04:59:22.296Z,87.3887
2024-05-09T05:00:32.044Z,87.4335
2024-05-09T05:01:27.677Z,87.4140
2024-05-09T05:02:30.951Z,87.3452
2024-05-09T05:03:34.292Z,87.5328
2024-05-09T05:04:37.635Z,87.4373
2024-05-09T05:05:41.361Z,87.3413
2024-05-09T05:06:41.326Z,87.2343
2024-05-09T05:07:44.592Z,87.2404
2024-05-09T05:08:47.823Z,87.1558
2024-05-09T05:09:51.039Z,87.3287
2024-05-09T05:10:54.437Z,87.5252
2024-05-09T05:11:57.831Z,87.5068
2024-05-09T05:13:01.083Z,87.5008
2024-05-09T05:14:04.394Z,87.5284
2024-05-09T05:15:07.580Z,87.3515
2024-05-09T05:16:10.802Z,87.4419
2024-05-09T05:17:14.091Z,87.4011
2024-05-09T05:18:17.463Z,87.3057
2024-05-09T05:19:17.839Z,87.3297
2024-05-09T05:20:27.038Z,87.3236
2024-05-09T05:21:19.861Z,87.2782
2024-05-09T05:22:23.094Z,87.4454
2024-05-09T05:23:26.409Z,87.2474
2024-05-09T05:24:29.642Z,87.1304
2024-05-09T05:25:32.865Z,87.2212
2024-05-09T05:26:36.167Z,87.2164
2024-05-09T05:27:39.417Z,87.2652
2024-05-09T05:28:42.652Z,87.0670
2024-05-09T05:29:45.915Z,87.0164
2024-05-09T05:30:49.126Z,87.0575
2024-05-09T05:31:52.443Z,87.0403
2024-05-09T05:32:55.889Z,87.1699
2024-05-09T05:33:55.923Z,87.4782
2024-05-09T05:34:59.213Z,87.4628
2024-05-09T05:36:02.450Z,87.3735
2024-05-09T05:37:05.648Z,87.1949
2024-05-09T05:38:09.004Z,87.1179
2024-05-09T05:39:09.161Z,87.3760
2024-05-09T05:40:20.629Z,87.2898
2024-05-09T05:41:14.608Z,87.2998
2024-05-09T05:42:17.850Z,87.2748
2024-05-09T05:43:21.067Z,87.6282
2024-05-09T05:44:24.364Z,87.7001
2024-05-09T05:45:27.609Z,87.6446
2024-05-09T05:46:30.841Z,87.6053
2024-05-09T05:47:34.323Z,87.5837
2024-05-09T05:48:34.331Z,87.3190
2024-05-09T05:49:34.290Z,87.3048
2024-05-09T05:50:38.591Z,87.2745
2024-05-09T05:51:38.616Z,87.2968
2024-05-09T05:52:41.841Z,87.4089
2024-05-09T05:53:45.137Z,87.4195
2024-05-09T05:54:48.348Z,87.2847
2024-05-09T05:55:51.628Z,87.1953
2024-05-09T05:56:54.895Z,87.1723
2024-05-09T05:57:58.129Z,87.4344
2024-05-09T05:59:01.425Z,87.3319
2024-05-09T06:00:09.233Z,87.4886
2024-05-09T06:01:06.814Z,87.4973
2024-05-09T06:02:10.236Z,87.3090
2024-05-09T06:03:14.290Z,87.3252
2024-05-09T06:04:14.322Z,87.2565
2024-05-09T06:05:17.605Z,87.1781
2024-05-09T06:06:21.024Z,87.2141
2024-05-09T06:07:24.198Z,87.2144
2024-05-09T06:08:30.256Z,87.1136
2024-05-09T06:09:30.374Z,86.9209
2024-05-09T06:10:38.742Z,86.7051
2024-05-09T06:11:35.803Z,86.3997
2024-05-09T06:12:39.124Z,86.6433
2024-05-09T06:13:42.338Z,86.3986
2024-05-09T06:14:45.573Z,86.3947
2024-05-09T06:15:48.976Z,86.4372
2024-05-09T06:16:54.057Z,86.5136
2024-05-09T06:17:54.595Z,86.6173
2024-05-09T06:18:54.602Z,86.3817
2024-05-09T06:19:54.884Z,85.9908
2024-05-09T06:20:55.091Z,85.7654
2024-05-09T06:21:58.308Z,86.0231
2024-05-09T06:23:01.671Z,85.5840
2024-05-09T06:24:06.778Z,85.3649
2024-05-09T06:25:06.536Z,85.5051
2024-05-09T06:26:09.845Z,85.2281
2024-05-09T06:27:13.038Z,84.7260
2024-05-09T06:28:16.363Z,85.0362
2024-05-09T06:29:19.601Z,85.0238
2024-05-09T06:30:30.115Z,84.5569
2024-05-09T06:31:25.005Z,84.5839
2024-05-09T06:32:28.348Z,84.3948
2024-05-09T06:33:31.764Z,84.2934
2024-05-09T06:34:35.082Z,83.9364
2024-05-09T06:35:38.521Z,83.7616
2024-05-09T06:36:38.331Z,83.6950
2024-05-09T06:37:41.615Z,82.8751
2024-05-09T06:38:44.931Z,82.5235
2024-05-09T06:39:48.145Z,82.2781
2024-05-09T06:40:51.427Z,82.9301
2024-05-09T06:41:51.388Z,83.2892
2024-05-09T06:42:54.621Z,83.0084
2024-05-09T06:43:57.962Z,83.4490
2024-05-09T06:45:01.152Z,83.5165
2024-05-09T06:46:04.376Z,82.5750
2024-05-09T06:47:07.785Z,82.8029
2024-05-09T06:48:11.267Z,82.5982
2024-05-09T06:49:11.412Z,82.2291
2024-05-09T06:50:20.153Z,81.4816
2024-05-09T06:51:13.742Z,81.5154
2024-05-09T06:52:16.962Z,81.2277
2024-05-09T06:53:20.380Z,79.9935
2024-05-09T06:54:23.711Z,81.1434
2024-05-09T06:55:26.939Z,82.0486
2024-05-09T06:56:30.358Z,82.0281
2024-05-09T06:57:33.561Z,81.8290
2024-05-09T06:58:36.908Z,81.6576
2024-05-09T06:59:40.268Z,81.7706
2024-05-09T07:00:43.633Z,81.4524
2024-05-09T07:01:46.920Z,81.2111
2024-05-09T07:02:50.349Z,81.2914
2024-05-09T07:03:53.663Z,82.3527
2024-05-09T07:04:57.018Z,82.3376
2024-05-09T07:05:56.938Z,81.8767
2024-05-09T07:07:00.212Z,81.9804
2024-05-09T07:08:03.526Z,82.2492
2024-05-09T07:09:06.768Z,82.3908
2024-05-09T07:10:14.990Z,82.1082
2024-05-09T07:11:12.229Z,82.0570
2024-05-09T07:12:15.539Z,82.0942
2024-05-09T07:13:18.890Z,81.8581
2024-05-09T07:14:22.194Z,81.9604
2024-05-09T07:15:25.395Z,82.3741
2024-05-09T07:16:28.622Z,81.8803
2024-05-09T07:17:32.088Z,82.1207
2024-05-09T07:18:35.508Z,81.8140
2024-05-09T07:19:35.515Z,81.9024
2024-05-09T07:20:38.807Z,81.9337
2024-05-09T07:21:42.059Z,81.4888
2024-05-09T07:22:45.410Z,81.4776
2024-05-09T07:23:48.723Z,81.9095
2024-05-09T07:24:52.031Z,81.8570
2024-05-09T07:25:55.321Z,81.7396
2024-05-09T07:26:58.540Z,81.3891
2024-05-09T07:28:01.899Z,80.9561
2024-05-09T07:29:05.161Z,80.8576
2024-05-09T07:30:09.424Z,80.3493
2024-05-09T07:31:11.277Z,80.1713
2024-05-09T07:32:14.730Z,80.8338
2024-05-09T07:33:14.757Z,81.2460
2024-05-09T07:34:14.830Z,80.8348
2024-05-09T07:35:14.664Z,80.7502
2024-05-09T07:36:17.851Z,80.5864
2024-05-09T07:37:21.075Z,80.6724
2024-05-09T07:38:24.490Z,80.4619
2024-05-09T07:39:27.731Z,80.3070
2024-05-09T07:40:35.966Z,80.5578
2024-05-09T07:41:33.385Z,81.2280
2024-05-09T07:42:36.569Z,81.0742
2024-05-09T07:43:39.804Z,80.9742
2024-05-09T07:44:43.165Z,80.9865
2024-05-09T07:47:48.609Z,80.1301
2024-05-09T07:49:13.573Z,79.5251
2024-05-09T07:52:45.973Z,79.4834
2024-05-09T07:53:22.088Z,80.1465
2024-05-09T07:53:36.082Z,79.4227
2024-05-09T07:54:04.412Z,80.4141
2024-05-09T07:55:04.708Z,80.5331
2024-05-09T07:56:09.359Z,80.3159
2024-05-09T07:57:09.798Z,79.3291
2024-05-09T07:58:13.151Z,80.0971
2024-05-09T07:59:16.433Z,80.0992
2024-05-09T08:00:23.734Z,79.1618
2024-05-09T08:01:22.062Z,78.8320
2024-05-09T08:02:22.256Z,78.0631
2024-05-09T08:03:22.368Z,77.8875
2024-05-09T08:04:26.778Z,77.8472
2024-05-09T08:05:26.753Z,78.9798
2024-05-09T08:06:30.087Z,78.7880
2024-05-09T08:07:33.426Z,78.1406
2024-05-09T08:08:36.621Z,77.8283
2024-05-09T08:09:39.976Z,77.1384
2024-05-09T08:10:43.502Z,77.3427
2024-05-09T08:11:43.386Z,77.5018
2024-05-09T08:12:46.592Z,76.9975
2024-05-09T08:13:49.857Z,76.7889
2024-05-09T08:14:53.270Z,76.8223
2024-05-09T08:15:56.579Z,76.8738
2024-05-09T08:16:59.810Z,77.4696
2024-05-09T08:18:03.237Z,77.0414
2024-05-09T08:19:06.682Z,76.5949
2024-05-09T08:20:11.355Z,77.4607
2024-05-09T08:21:13.120Z,77.7436
2024-05-09T08:22:12.891Z,77.4062
2024-05-09T08:23:16.095Z,78.1509
2024-05-09T08:24:19.333Z,78.0373
2024-05-09T08:25:22.618Z,77.1355
2024-05-09T08:26:25.836Z,77.3867
2024-05-09T08:27:29.136Z,77.4084
2024-05-09T08:28:32.394Z,78.4124
2024-05-09T08:29:35.604Z,78.3373
2024-05-09T08:30:38.951Z,78.5139
2024-05-09T08:31:42.276Z,78.5686
2024-05-09T08:32:45.736Z,78.6652
2024-05-09T08:33:49.092Z,78.5111
2024-05-09T08:34:52.536Z,78.3245
2024-05-09T08:35:55.806Z,78.3920
2024-05-09T08:37:03.913Z,78.2293
2024-05-09T08:38:01.342Z,78.4123
2024-05-09T08:39:04.643Z,78.7342
2024-05-09T08:40:11.133Z,78.4742
2024-05-09T08:41:10.156Z,77.6085
2024-05-09T08:42:13.396Z,77.9368
2024-05-09T08:43:16.831Z,78.4361
2024-05-09T08:44:16.612Z,76.9889
2024-05-09T08:45:16.738Z,76.9248
2024-05-09T08:46:20.129Z,76.9117
2024-05-09T08:47:20.007Z,76.5987
2024-05-09T08:48:23.510Z,75.4713
2024-05-09T08:49:23.651Z,75.6707
2024-05-09T08:50:35.457Z,76.0390
2024-05-09T08:51:29.178Z,75.4245
2024-05-09T08:52:32.434Z,76.5119
2024-05-09T08:53:35.646Z,76.5469
2024-05-09T08:54:38.909Z,76.5031
2024-05-09T08:55:43.769Z,76.6833
2024-05-09T08:56:44.043Z,76.4019
2024-05-09T08:57:47.364Z,75.2803
2024-05-09T08:58:50.542Z,75.4830
2024-05-09T08:59:53.766Z,75.8985
2024-05-09T09:00:57.123Z,75.5233
2024-05-09T09:02:00.489Z,75.3275
2024-05-09T09:03:03.819Z,75.5095
2024-05-09T09:04:07.338Z,75.7718
2024-05-09T09:05:07.241Z,75.7336
2024-05-09T09:06:10.486Z,75.8100
2024-05-09T09:07:13.847Z,75.5624
2024-05-09T09:08:17.080Z,76.0907
2024-05-09T09:09:20.368Z,76.1883
2024-05-09T09:10:29.804Z,76.3983
2024-05-09T09:11:25.723Z,77.0864
2024-05-09T09:12:28.978Z,76.5224
2024-05-09T09:13:32.217Z,76.7362
2024-05-09T09:14:35.528Z,76.3815
2024-05-09T09:15:38.740Z,75.7398
2024-05-09T09:16:41.936Z,75.5187
2024-05-09T09:17:45.198Z,75.1960
2024-05-09T09:18:48.524Z,74.8086
2024-05-09T09:19:48.469Z,74.3751
2024-05-09T09:20:51.762Z,74.3290
2024-05-09T09:21:55.018Z,75.1594
2024-05-09T09:22:58.252Z,75.7776
2024-05-09T09:24:01.612Z,76.0769
2024-05-09T09:25:04.993Z,75.1452
2024-05-09T09:26:08.303Z,75.5123
2024-05-09T09:27:11.546Z,76.0461
2024-05-09T09:28:14.956Z,74.7198
2024-05-09T09:29:18.185Z,74.7939
2024-05-09T09:30:34.005Z,74.3816
2024-05-09T09:31:23.598Z,74.2185
2024-05-09T09:32:23.598Z,74.0972
2024-05-09T09:33:40.946Z,74.4312
2024-05-09T09:34:43.301Z,74.1783
2024-05-09T09:35:45.431Z,73.2302
2024-05-09T09:36:45.584Z,72.1123
2024-05-09T09:37:47.764Z,73.0051
2024-05-09T09:38:49.835Z,73.0736
2024-05-09T09:39:51.985Z,72.1396
2024-05-09T09:40:54.204Z,72.7202
2024-05-09T09:41:56.308Z,72.5255
2024-05-09T09:42:58.506Z,72.7866
2024-05-09T09:44:00.620Z,73.5672
2024-05-09T09:45:05.460Z,73.3578
2024-05-09T09:46:03.149Z,73.9418
2024-05-09T09:47:05.290Z,72.9524
2024-05-09T09:48:07.522Z,73.5890
2024-05-09T09:49:09.645Z,73.9280
2024-05-09T09:50:14.634Z,73.5268
2024-05-09T09:51:12.368Z,73.2689
2024-05-09T09:52:14.659Z,71.3688
2024-05-09T09:53:16.809Z,71.3069
2024-05-09T09:54:18.921Z,70.8970
2024-05-09T09:55:21.096Z,71.3629
2024-05-09T09:56:23.226Z,70.6993
2024-05-09T09:57:25.349Z,70.3326
2024-05-09T09:58:27.699Z,70.1031
2024-05-09T09:59:29.784Z,69.7825
2024-05-09T10:00:33.528Z,70.8108
2024-05-09T10:01:33.797Z,70.7373
2024-05-09T10:02:35.940Z,69.0413
2024-05-09T10:03:38.341Z,67.5414
2024-05-09T10:04:38.289Z,67.7085
2024-05-09T10:05:42.097Z,67.1431
2024-05-09T10:06:41.361Z,67.1366
2024-05-09T10:07:43.472Z,67.4671
2024-05-09T10:08:45.609Z,68.1509
2024-05-09T10:09:47.768Z,66.4187
2024-05-09T10:10:50.242Z,65.2150
2024-05-09T10:11:52.360Z,65.7996
2024-05-09T10:12:51.833Z,66.4504
2024-05-09T10:13:54.034Z,65.4096
2024-05-09T10:14:56.158Z,64.8690
2024-05-09T10:15:58.415Z,67.2057
2024-05-09T10:17:00.659Z,66.4367
2024-05-09T10:18:03.095Z,67.7758
2024-05-09T10:19:05.363Z,68.2531
2024-05-09T10:20:14.657Z,68.4970
2024-05-09T10:21:08.078Z,67.4278
2024-05-09T10:22:10.344Z,67.0804
2024-05-09T10:23:12.621Z,66.5192
2024-05-09T10:24:14.702Z,66.5068
2024-05-09T10:25:16.874Z,65.3930
2024-05-09T10:26:19.112Z,64.7122
2024-05-09T10:27:21.311Z,65.8910
2024-05-09T10:28:23.546Z,65.0987
2024-05-09T10:29:25.718Z,64.7936
2024-05-09T10:30:34.082Z,64.1696
2024-05-09T10:31:28.561Z,63.6759
2024-05-09T10:32:30.745Z,64.3833
2024-05-09T10:33:33.103Z,65.5684
2024-05-09T10:34:35.414Z,64.3353
2024-05-09T10:35:37.570Z,62.1656
2024-05-09T10:36:39.873Z,63.7068
2024-05-09T10:37:42.025Z,63.1117
2024-05-09T10:38:44.138Z,62.9073
2024-05-09T10:39:46.341Z,62.6043
2024-05-09T10:40:48.447Z,63.1592
2024-05-09T10:41:50.731Z,64.5419
2024-05-09T10:42:52.900Z,65.0499
2024-05-09T10:43:55.024Z,65.3111
2024-05-09T10:44:57.120Z,65.5907
2024-05-09T10:45:59.265Z,66.5957
2024-05-09T10:47:01.401Z,67.0774
2024-05-09T10:48:03.601Z,66.7087
2024-05-09T10:49:07.875Z,67.0463
2024-05-09T10:50:15.737Z,67.2275
2024-05-09T10:51:08.249Z,67.4777
2024-05-09T10:52:10.473Z,66.7199
2024-05-09T10:53:12.582Z,66.6064
2024-05-09T10:54:14.692Z,65.8933
2024-05-09T10:55:17.079Z,65.4051
2024-05-09T10:56:19.183Z,64.8597
2024-05-09T10:57:21.343Z,65.3944
2024-05-09T10:58:23.581Z,65.8799
2024-05-09T10:59:25.689Z,64.9474
2024-05-09T11:00:33.595Z,64.8291
2024-05-09T11:01:28.758Z,65.9914
2024-05-09T11:02:31.122Z,66.5966
2024-05-09T11:03:31.117Z,65.1979
2024-05-09T11:04:33.337Z,63.7087
2024-05-09T11:05:35.528Z,62.5270
2024-05-09T11:06:37.690Z,61.6081
2024-05-09T11:07:40.025Z,62.5589
2024-05-09T11:08:42.216Z,64.1055
2024-05-09T11:09:44.451Z,63.7696
2024-05-09T11:10:46.702Z,62.7708
2024-05-09T11:11:48.879Z,62.6998
2024-05-09T11:12:51.180Z,60.7003
2024-05-09T11:13:53.263Z,60.1064
2024-05-09T11:14:55.492Z,61.6123
2024-05-09T11:15:57.603Z,61.8556
2024-05-09T11:16:58.245Z,62.0563
2024-05-09T11:18:00.583Z,62.2111
2024-05-09T11:19:02.900Z,62.3264
2024-05-09T11:20:13.298Z,62.2409
2024-05-09T11:21:05.697Z,63.1748
2024-05-09T11:22:07.925Z,62.7472
2024-05-09T11:23:10.118Z,60.5151
2024-05-09T11:24:12.194Z,57.1362
2024-05-09T11:25:14.418Z,55.4927
2024-05-09T11:26:16.541Z,59.0005
2024-05-09T11:27:18.655Z,58.6108
2024-05-09T11:28:20.903Z,60.1657
2024-05-09T11:29:23.018Z,60.5569
2024-05-09T11:30:30.115Z,60.4205
2024-05-09T11:31:25.972Z,60.3403
2024-05-09T11:32:28.327Z,60.7335
2024-05-09T11:33:30.634Z,61.9969
2024-05-09T11:34:32.901Z,61.4743
2024-05-09T11:35:35.058Z,61.7019
2024-05-09T11:36:37.207Z,62.4205
2024-05-09T11:37:39.346Z,61.9008
2024-05-09T11:38:41.473Z,61.0434
2024-05-09T11:39:43.612Z,62.2690
2024-05-09T11:40:45.728Z,61.3338
2024-05-09T11:41:47.861Z,60.9475
2024-05-09T11:42:52.498Z,60.8573
2024-05-09T11:43:50.180Z,59.7352
2024-05-09T11:44:52.287Z,59.1390
2024-05-09T11:45:54.431Z,59.8635
2024-05-09T11:46:56.508Z,58.8663
2024-05-09T11:47:58.846Z,59.6180
2024-05-09T11:49:01.110Z,59.6518
2024-05-09T11:50:04.365Z,59.8475
2024-05-09T11:51:04.765Z,61.1239
2024-05-09T11:52:06.909Z,61.5288
2024-05-09T11:53:09.049Z,59.9678
2024-05-09T11:54:11.126Z,60.2675
2024-05-09T11:55:13.320Z,60.8877
2024-05-09T11:56:15.432Z,61.5875
2024-05-09T11:57:17.522Z,63.0354
2024-05-09T11:58:19.854Z,63.8248
2024-05-09T11:59:22.118Z,62.8326
2024-05-09T12:00:33.754Z,62.6940
2024-05-09T12:01:27.510Z,63.7737
2024-05-09T12:02:25.079Z,62.6932
2024-05-09T12:03:27.352Z,62.6545
2024-05-09T12:04:29.581Z,61.8396
2024-05-09T12:05:32.035Z,62.9660
2024-05-09T12:06:31.899Z,62.0434
2024-05-09T12:07:34.037Z,62.4369
2024-05-09T12:08:36.152Z,61.3979
2024-05-09T12:09:38.401Z,61.5839
2024-05-09T12:10:40.769Z,60.5758
2024-05-09T12:11:40.525Z,58.7989
2024-05-09T12:12:42.642Z,58.8409
2024-05-09T12:13:44.791Z,60.5256
2024-05-09T12:14:46.901Z,59.6034
2024-05-09T12:15:49.044Z,61.9363
2024-05-09T12:16:51.275Z,61.6116
2024-05-09T12:17:53.573Z,60.8696
2024-05-09T12:18:55.984Z,59.7736
2024-05-09T12:19:58.182Z,60.7649
2024-05-09T12:21:00.305Z,60.0867
2024-05-09T12:22:02.466Z,59.7714
2024-05-09T12:23:04.613Z,59.4056
2024-05-09T12:24:06.687Z,58.9025
2024-05-09T12:25:08.898Z,59.0281
2024-05-09T12:26:11.075Z,57.9717
2024-05-09T12:27:11.140Z,57.2552
2024-05-09T12:28:13.314Z,57.5730
2024-05-09T12:29:15.451Z,57.7143
2024-05-09T12:30:29.034Z,58.8977
2024-05-09T12:31:18.214Z,55.6269
2024-05-09T12:32:20.432Z,58.1195
2024-05-09T12:33:22.674Z,57.7066
2024-05-09T12:34:24.782Z,58.0461
2024-05-09T12:35:26.895Z,57.7059
2024-05-09T12:36:27.557Z,58.3597
2024-05-09T12:37:29.719Z,57.5359
2024-05-09T12:38:31.838Z,56.1606
2024-05-09T12:39:33.988Z,55.0898